Time;durP1;ratioP1;P1;durP2;ratioP2;P2;SDS_P1;SDS_P2;PMS_P1;PMS_P2;Temp;Humidity;BMP_temperature;BMP_pressure;BME280_temperature;BME280_humidity;BME280_pressure;Samples;Min_cycle;Max_cycle;Signal;HPM_P1;HPM_P2
2022/08/25 00:00:59;;;;;;;23.52;20.55;;;20.60;99.90;;;;;;5107050;28;20055;-68
2022/08/25 00:03:25;;;;;;;21.77;18.45;;;20.60;99.90;;;;;;5107705;28;20130;-69
2022/08/25 00:05:50;;;;;;;19.83;17.73;;;20.60;99.90;;;;;;5106644;28;20046;-69
2022/08/25 00:08:16;;;;;;;19.40;17.00;;;20.60;99.90;;;;;;5107494;28;20503;-68
2022/08/25 00:10:42;;;;;;;19.17;17.23;;;20.50;99.90;;;;;;5106232;28;20118;-68
2022/08/25 00:13:08;;;;;;;19.60;15.90;;;20.50;99.90;;;;;;5108480;28;20126;-68
2022/08/25 00:15:34;;;;;;;19.23;15.77;;;20.50;99.90;;;;;;5107837;28;20043;-68
2022/08/25 00:18:01;;;;;;;17.90;15.60;;;20.50;99.90;;;;;;5090456;28;20040;-68
2022/08/25 00:20:31;;;;;;;18.63;15.90;;;20.50;99.90;;;;;;5108130;28;20028;-68
2022/08/25 00:22:57;;;;;;;18.08;14.85;;;20.50;99.90;;;;;;5105041;28;20184;-68
2022/08/25 00:25:23;;;;;;;15.60;13.88;;;20.50;99.90;;;;;;5105113;28;20448;-68
2022/08/25 00:27:50;;;;;;;18.10;14.25;;;20.50;99.90;;;;;;5107030;28;20039;-68
2022/08/25 00:30:17;;;;;;;17.35;13.60;;;20.50;99.90;;;;;;5107731;28;20400;-68
2022/08/25 00:32:43;;;;;;;21.95;12.75;;;20.40;99.90;;;;;;5103974;28;20055;-68
2022/08/25 00:35:09;;;;;;;17.73;13.00;;;20.40;99.90;;;;;;5104273;28;20035;-69
2022/08/25 00:37:36;;;;;;;14.02;11.73;;;20.30;99.90;;;;;;5108236;28;20495;-68
2022/08/25 00:40:03;;;;;;;15.85;11.70;;;20.30;99.90;;;;;;5089833;28;20365;-69
2022/08/25 00:42:28;;;;;;;14.35;11.32;;;20.30;99.90;;;;;;5107099;28;20055;-69
2022/08/25 00:44:55;;;;;;;14.88;11.07;;;20.30;99.90;;;;;;5102351;28;20055;-69
2022/08/25 00:47:20;;;;;;;17.38;10.90;;;20.30;99.90;;;;;;5105348;28;20044;-68
2022/08/25 00:49:57;;;;;;;14.32;10.60;;;20.30;99.90;;;;;;5101314;28;20089;-68
2022/08/25 00:52:28;;;;;;;18.58;10.40;;;20.20;99.90;;;;;;5106108;28;20129;-68
2022/08/25 00:54:58;;;;;;;14.68;9.30;;;20.20;99.90;;;;;;5105615;28;20496;-68
2022/08/25 00:57:29;;;;;;;14.00;8.52;;;20.20;99.90;;;;;;5102260;28;20150;-68
2022/08/25 00:59:55;;;;;;;13.43;9.55;;;20.20;99.90;;;;;;5103029;27;20036;-68
2022/08/25 01:02:22;;;;;;;13.57;8.10;;;20.30;99.90;;;;;;5105408;28;20050;-69
2022/08/25 01:04:48;;;;;;;13.07;8.57;;;20.20;99.90;;;;;;5102028;28;20046;-68
2022/08/25 01:07:17;;;;;;;13.23;7.63;;;20.20;99.90;;;;;;5103456;28;20053;-68
2022/08/25 01:09:45;;;;;;;10.20;7.50;;;20.20;99.90;;;;;;5100210;28;20343;-68
2022/08/25 01:12:11;;;;;;;10.10;6.82;;;20.20;99.90;;;;;;5098752;28;20051;-68
2022/08/25 01:14:37;;;;;;;10.82;7.45;;;20.20;99.90;;;;;;5094786;28;20050;-68
2022/08/25 01:17:03;;;;;;;13.77;7.45;;;20.10;99.90;;;;;;5104379;28;20034;-68
2022/08/25 01:19:32;;;;;;;10.85;7.30;;;20.10;99.90;;;;;;5082706;28;20048;-69
2022/08/25 01:21:58;;;;;;;14.02;7.78;;;20.10;99.90;;;;;;5082286;28;20041;-68
2022/08/25 01:24:33;;;;;;;12.05;6.45;;;20.10;99.90;;;;;;5096419;28;20400;-68
2022/08/25 01:27:00;;;;;;;11.90;7.00;;;20.00;99.90;;;;;;5101273;28;20051;-69
2022/08/25 01:29:26;;;;;;;8.75;6.22;;;20.00;99.90;;;;;;5101567;28;20071;-68
2022/08/25 01:31:59;;;;;;;9.80;6.10;;;20.00;99.90;;;;;;5105304;28;20038;-69
2022/08/25 01:34:27;;;;;;;8.40;5.53;;;20.00;99.90;;;;;;5084166;28;20047;-68
2022/08/25 01:36:55;;;;;;;10.90;6.15;;;19.90;99.90;;;;;;5099768;28;20032;-68
2022/08/25 01:39:22;;;;;;;9.88;5.93;;;19.90;99.90;;;;;;5101524;28;20144;-68
2022/08/25 01:41:48;;;;;;;12.43;6.38;;;19.90;99.90;;;;;;5106232;27;20411;-68
2022/08/25 01:44:15;;;;;;;9.50;6.10;;;19.90;99.90;;;;;;5084923;28;20059;-68
2022/08/25 01:46:42;;;;;;;11.70;6.18;;;19.90;99.90;;;;;;5106097;28;20096;-68
2022/08/25 01:49:09;;;;;;;11.75;6.18;;;19.80;99.90;;;;;;5101806;28;20040;-68
2022/08/25 01:51:42;;;;;;;8.60;5.32;;;19.80;99.90;;;;;;5096958;28;20044;-68
2022/08/25 01:54:08;;;;;;;9.70;5.57;;;19.80;99.90;;;;;;5097971;28;20040;-68
2022/08/25 01:56:34;;;;;;;9.18;5.35;;;19.80;99.90;;;;;;5102522;28;20064;-68
2022/08/25 01:59:00;;;;;;;10.15;5.18;;;19.70;99.90;;;;;;5101989;28;20040;-68
2022/08/25 02:01:26;;;;;;;9.98;5.30;;;19.70;99.90;;;;;;5103770;28;20103;-68
2022/08/25 02:03:54;;;;;;;9.05;5.60;;;19.70;99.90;;;;;;5095462;28;20126;-68
2022/08/25 02:06:28;;;;;;;10.93;5.28;;;19.70;99.90;;;;;;5084165;28;20044;-68
2022/08/25 02:08:57;;;;;;;10.35;5.72;;;19.60;99.90;;;;;;5095005;28;20042;-68
2022/08/25 02:11:23;;;;;;;11.90;5.30;;;19.60;99.90;;;;;;5084960;28;20485;-68
2022/08/25 02:13:51;;;;;;;12.73;5.88;;;19.60;99.90;;;;;;5090516;28;20035;-68
2022/08/25 02:16:24;;;;;;;11.57;5.13;;;19.60;99.90;;;;;;5082831;28;20039;-68
2022/08/25 02:18:50;;;;;;;10.65;5.63;;;19.60;99.90;;;;;;5102157;28;20047;-68
2022/08/25 02:21:16;;;;;;;9.02;4.50;;;19.60;99.90;;;;;;5100940;28;20089;-68
2022/08/25 02:23:42;;;;;;;7.93;5.18;;;19.60;99.90;;;;;;5095013;28;20110;-68
2022/08/25 02:26:09;;;;;;;8.00;4.53;;;19.50;99.90;;;;;;5074023;28;20039;-68
2022/08/25 02:28:36;;;;;;;10.73;5.10;;;19.50;99.90;;;;;;5101700;28;20051;-68
2022/08/25 02:31:04;;;;;;;11.95;5.03;;;19.50;99.90;;;;;;5104666;28;20042;-68
2022/08/25 02:33:29;;;;;;;9.50;5.00;;;19.40;99.90;;;;;;5098829;28;20150;-68
2022/08/25 02:36:04;;;;;;;7.70;4.85;;;19.40;99.90;;;;;;5103404;28;20204;-68
2022/08/25 02:38:30;;;;;;;8.43;4.78;;;19.40;99.90;;;;;;5086163;28;20048;-68
2022/08/25 02:40:57;;;;;;;9.48;5.18;;;19.40;99.90;;;;;;5097846;28;20709;-68
2022/08/25 02:43:24;;;;;;;8.88;5.15;;;19.30;99.90;;;;;;5098783;28;20117;-68
2022/08/25 02:45:51;;;;;;;7.97;4.80;;;19.30;99.90;;;;;;5102022;28;20047;-68
2022/08/25 02:48:17;;;;;;;11.05;4.82;;;19.30;99.90;;;;;;5096911;28;20036;-69
2022/08/25 02:50:47;;;;;;;10.68;5.35;;;19.30;99.90;;;;;;5100835;28;20519;-69
2022/08/25 02:53:13;;;;;;;7.57;4.43;;;19.30;99.90;;;;;;5079123;28;20047;-69
2022/08/25 02:55:39;;;;;;;10.57;4.72;;;19.20;99.90;;;;;;5096092;28;20067;-68
2022/08/25 02:58:05;;;;;;;10.30;4.70;;;19.20;99.90;;;;;;5100153;28;20078;-68
2022/08/25 03:00:34;;;;;;;9.80;4.93;;;19.20;99.90;;;;;;5104208;28;20076;-68
2022/08/25 03:02:59;;;;;;;6.90;4.47;;;19.20;99.90;;;;;;5099947;28;20036;-68
2022/08/25 03:05:25;;;;;;;9.95;4.78;;;19.10;99.90;;;;;;5103130;28;20594;-68
2022/08/25 03:07:51;;;;;;;8.57;4.38;;;19.10;99.90;;;;;;5099486;28;20539;-68
2022/08/25 03:10:18;;;;;;;8.93;4.95;;;19.10;99.90;;;;;;5081948;28;20089;-68
2022/08/25 03:12:45;;;;;;;7.47;4.45;;;19.00;99.90;;;;;;5078831;28;20119;-68
2022/08/25 03:15:15;;;;;;;8.93;4.40;;;19.10;99.90;;;;;;5096336;28;20048;-68
2022/08/25 03:17:41;;;;;;;7.97;4.38;;;19.00;99.90;;;;;;5103889;28;20501;-68
2022/08/25 03:20:07;;;;;;;10.10;4.90;;;19.00;99.90;;;;;;5103982;28;20408;-68
2022/08/25 03:22:33;;;;;;;9.70;4.43;;;18.90;99.90;;;;;;5100768;28;20040;-68
2022/08/25 03:26:52;;;;;;;10.82;5.05;;;18.90;99.90;;;;;;5104910;28;20572;-68
2022/08/25 03:27:45;;;;;;;9.82;5.07;;;18.90;99.90;;;;;;5101791;28;20111;-68
2022/08/25 03:30:12;;;;;;;10.45;4.82;;;18.90;99.90;;;;;;5092687;28;20854;-68
2022/08/25 03:32:38;;;;;;;10.43;4.35;;;18.80;99.90;;;;;;5100267;28;20117;-68
2022/08/25 03:35:04;;;;;;;8.07;4.53;;;18.80;99.90;;;;;;5106534;28;20047;-68
2022/08/25 03:37:30;;;;;;;11.68;4.80;;;18.80;99.90;;;;;;5108121;28;20085;-68
2022/08/25 03:39:56;;;;;;;10.57;4.40;;;18.80;99.90;;;;;;5105939;28;20043;-68
2022/08/25 03:42:22;;;;;;;8.98;5.05;;;18.80;99.90;;;;;;5108574;28;20392;-68
2022/08/25 03:44:48;;;;;;;8.40;4.50;;;18.70;99.90;;;;;;5094771;28;20055;-68
2022/08/25 03:47:13;;;;;;;8.80;4.78;;;18.70;99.90;;;;;;5071511;28;20047;-68
2022/08/25 03:49:39;;;;;;;9.95;4.70;;;18.70;99.90;;;;;;5088827;28;20479;-68
2022/08/25 03:52:05;;;;;;;11.20;4.97;;;18.70;99.90;;;;;;5094739;28;20155;-68
2022/08/25 03:54:33;;;;;;;8.90;4.45;;;18.70;99.90;;;;;;5088510;28;20500;-68
2022/08/25 03:56:59;;;;;;;9.68;4.65;;;18.70;99.90;;;;;;5068833;28;20036;-68
2022/08/25 03:59:26;;;;;;;12.48;4.53;;;18.60;99.90;;;;;;5086732;28;20055;-68
2022/08/25 04:01:51;;;;;;;9.88;4.50;;;18.60;99.90;;;;;;5075302;28;20059;-68
2022/08/25 04:04:17;;;;;;;8.57;4.60;;;18.60;99.90;;;;;;5091505;28;20118;-68
2022/08/25 04:06:43;;;;;;;8.13;4.55;;;18.60;99.90;;;;;;5122725;27;20047;-68
2022/08/25 04:09:11;;;;;;;7.70;4.20;;;18.50;99.90;;;;;;5088227;28;20456;-68
2022/08/25 04:11:37;;;;;;;9.35;4.60;;;18.50;99.90;;;;;;5070537;28;20161;-68
2022/08/25 04:14:04;;;;;;;9.65;4.68;;;18.50;99.90;;;;;;5090221;28;20051;-68
2022/08/25 04:16:32;;;;;;;10.43;4.75;;;18.50;99.90;;;;;;5087858;28;20048;-68
2022/08/25 04:19:01;;;;;;;13.57;5.20;;;18.50;99.90;;;;;;5094495;28;20076;-68
2022/08/25 04:21:27;;;;;;;9.50;4.95;;;18.40;99.90;;;;;;5088286;28;20112;-68
2022/08/25 04:23:54;;;;;;;11.07;4.90;;;18.50;99.90;;;;;;5091609;28;20124;-68
2022/08/25 04:26:36;;;;;;;10.30;4.80;;;18.40;99.90;;;;;;5090178;28;20051;-68
2022/08/25 04:29:03;;;;;;;11.95;4.80;;;18.40;99.90;;;;;;5071814;28;20155;-68
2022/08/25 04:31:29;;;;;;;10.43;4.65;;;18.30;99.90;;;;;;5086123;28;20118;-68
2022/08/25 04:33:56;;;;;;;8.82;4.80;;;18.40;99.90;;;;;;5090639;28;20072;-68
2022/08/25 04:36:22;;;;;;;10.07;4.57;;;18.40;99.90;;;;;;5095392;28;20055;-67
2022/08/25 04:38:48;;;;;;;12.80;4.93;;;18.30;99.90;;;;;;5087048;28;20052;-68
2022/08/25 04:41:18;;;;;;;11.68;4.50;;;18.30;99.90;;;;;;5092552;28;20068;-67
2022/08/25 04:43:44;;;;;;;8.35;4.38;;;18.30;99.90;;;;;;5104556;27;20055;-68
2022/08/25 04:46:17;;;;;;;9.23;4.10;;;18.30;99.90;;;;;;5128193;27;20080;-68
2022/08/25 04:48:43;;;;;;;8.02;4.43;;;18.40;99.90;;;;;;5108525;27;20040;-68
2022/08/25 04:51:12;;;;;;;9.30;4.07;;;18.30;99.90;;;;;;5109456;27;20054;-68
2022/08/25 04:53:39;;;;;;;10.15;4.40;;;18.30;99.90;;;;;;5091425;27;20046;-68
2022/08/25 04:56:07;;;;;;;9.07;4.32;;;18.20;99.90;;;;;;5109125;27;20054;-68
2022/08/25 04:58:33;;;;;;;9.20;4.80;;;18.30;99.90;;;;;;5095813;27;21732;-68
2022/08/25 05:01:08;;;;;;;12.48;5.07;;;18.20;99.90;;;;;;5108763;27;20035;-68
2022/08/25 05:03:34;;;;;;;8.93;4.60;;;18.30;99.90;;;;;;5107741;27;20522;-68
2022/08/25 05:06:00;;;;;;;10.10;4.28;;;18.20;99.90;;;;;;5109663;27;20031;-67
2022/08/25 05:08:27;;;;;;;9.52;4.50;;;18.20;99.90;;;;;;5106223;27;20138;-67
2022/08/25 05:10:55;;;;;;;12.15;4.70;;;18.30;99.90;;;;;;5106455;27;20051;-68
2022/08/25 05:13:21;;;;;;;9.60;5.20;;;18.20;99.90;;;;;;5123571;27;20047;-68
2022/08/25 05:15:56;;;;;;;12.70;5.22;;;18.20;99.90;;;;;;5109729;27;20047;-67
2022/08/25 05:18:23;;;;;;;10.00;4.60;;;18.20;99.90;;;;;;5121292;27;20042;-67
2022/08/25 05:20:52;;;;;;;8.43;4.70;;;18.20;99.90;;;;;;5110468;27;20554;-67
2022/08/25 05:23:19;;;;;;;10.18;4.43;;;18.20;99.90;;;;;;5090114;27;20411;-68
2022/08/25 05:25:45;;;;;;;9.05;4.50;;;18.30;99.90;;;;;;5106323;27;20043;-68
2022/08/25 05:28:11;;;;;;;9.25;4.20;;;18.40;99.90;;;;;;5104829;27;20055;-68
2022/08/25 05:30:38;;;;;;;9.15;4.03;;;18.70;99.90;;;;;;5103510;27;20084;-68
2022/08/25 05:33:04;;;;;;;11.02;4.10;;;19.00;99.90;;;;;;5109327;27;20038;-68
2022/08/25 05:35:30;;;;;;;8.95;4.32;;;19.20;99.90;;;;;;5127143;27;20063;-68
2022/08/25 05:37:56;;;;;;;12.88;4.22;;;19.40;99.90;;;;;;5132917;27;20392;-68
2022/08/25 05:40:23;;;;;;;9.38;4.50;;;19.50;99.90;;;;;;5125344;27;20071;-68
2022/08/25 05:42:50;;;;;;;9.52;4.10;;;19.40;99.90;;;;;;5102996;27;20043;-68
2022/08/25 05:45:16;;;;;;;10.27;4.35;;;19.40;99.90;;;;;;5100795;27;20527;-68
2022/08/25 05:47:42;;;;;;;8.63;4.20;;;19.30;99.90;;;;;;5122412;27;20075;-68
2022/08/25 05:50:08;;;;;;;13.95;4.30;;;19.20;99.90;;;;;;5105576;27;20096;-70
2022/08/25 05:52:34;;;;;;;8.52;4.60;;;19.10;99.90;;;;;;5112329;27;20093;-68
2022/08/25 05:55:00;;;;;;;11.52;4.10;;;19.10;99.90;;;;;;5122768;27;20066;-68
2022/08/25 05:57:26;;;;;;;9.63;4.18;;;19.10;99.90;;;;;;5089312;27;20047;-68
2022/08/25 05:59:51;;;;;;;9.48;4.40;;;19.00;99.90;;;;;;5116271;27;20126;-67
2022/08/25 06:05:01;;;;;;;6.57;3.78;;;19.00;99.90;;;;;;5123701;27;20151;-68
2022/08/25 06:07:27;;;;;;;7.38;4.00;;;19.00;99.90;;;;;;5101603;27;20442;-68
2022/08/25 06:09:52;;;;;;;8.65;4.50;;;19.00;99.90;;;;;;5123857;27;20031;-68
2022/08/25 06:12:20;;;;;;;12.82;4.30;;;19.00;99.90;;;;;;5104064;27;20054;-68
2022/08/25 06:14:48;;;;;;;8.85;5.00;;;19.00;99.90;;;;;;5103297;27;20407;-68
2022/08/25 06:17:14;;;;;;;9.02;4.90;;;19.00;99.90;;;;;;5100627;27;20038;-69
2022/08/25 06:19:40;;;;;;;9.45;4.63;;;19.10;99.90;;;;;;5131254;27;20047;-68
2022/08/25 06:22:06;;;;;;;9.23;4.32;;;19.10;99.90;;;;;;5119122;27;20046;-68
2022/08/25 06:24:32;;;;;;;8.68;4.57;;;19.10;99.90;;;;;;5124143;27;20046;-68
2022/08/25 06:26:58;;;;;;;10.02;4.55;;;19.20;99.90;;;;;;5134144;27;20418;-68
2022/08/25 06:29:24;;;;;;;12.10;5.38;;;19.20;99.90;;;;;;5112200;27;20032;-68
2022/08/25 06:31:50;;;;;;;8.95;4.63;;;19.30;99.90;;;;;;5107662;27;20046;-68
2022/08/25 06:34:17;;;;;;;10.40;4.90;;;19.30;99.90;;;;;;5107653;27;20050;-68
2022/08/25 06:36:43;;;;;;;8.95;4.93;;;19.40;99.90;;;;;;5124419;27;20521;-68
2022/08/25 06:39:09;;;;;;;8.32;4.80;;;19.50;99.90;;;;;;5106534;27;20852;-68
2022/08/25 06:41:36;;;;;;;9.65;4.50;;;19.60;99.90;;;;;;5105589;27;20404;-68
2022/08/25 06:44:02;;;;;;;8.35;4.47;;;19.60;99.90;;;;;;5104972;27;20130;-69
2022/08/25 06:46:29;;;;;;;13.98;5.05;;;19.70;99.90;;;;;;5124663;27;20126;-68
2022/08/25 06:48:56;;;;;;;9.00;4.40;;;19.80;99.90;;;;;;5125135;27;20418;-68
2022/08/25 06:51:25;;;;;;;6.68;4.40;;;19.90;99.90;;;;;;5106640;27;20175;-68
2022/08/25 06:53:51;;;;;;;12.52;4.47;;;19.90;99.90;;;;;;5124057;27;20047;-68
2022/08/25 06:56:19;;;;;;;10.65;4.63;;;20.00;99.90;;;;;;5129340;27;20070;-68
2022/08/25 06:58:45;;;;;;;9.20;4.00;;;20.10;99.90;;;;;;5108189;27;20156;-68
2022/08/25 07:01:20;;;;;;;15.25;4.35;;;20.10;99.90;;;;;;5104523;27;20053;-68
2022/08/25 07:03:47;;;;;;;7.40;3.83;;;20.20;99.90;;;;;;5107812;27;20045;-70
2022/08/25 07:06:13;;;;;;;11.60;3.95;;;20.30;99.90;;;;;;5125400;27;20622;-68
2022/08/25 07:08:38;;;;;;;9.75;4.15;;;20.40;99.90;;;;;;5091990;27;20051;-68
2022/08/25 07:11:08;;;;;;;6.43;3.80;;;20.40;99.90;;;;;;5103345;27;20045;-68
2022/08/25 07:13:35;;;;;;;7.63;4.33;;;20.40;99.90;;;;;;5118787;27;20079;-68
2022/08/25 07:16:01;;;;;;;9.38;4.68;;;20.60;99.90;;;;;;5115470;27;20550;-67
2022/08/25 07:18:27;;;;;;;8.07;4.15;;;20.60;99.90;;;;;;5103006;27;20057;-67
2022/08/25 07:20:52;;;;;;;9.95;4.20;;;20.70;99.90;;;;;;5124086;27;20047;-66
2022/08/25 07:23:19;;;;;;;11.20;4.30;;;20.80;99.90;;;;;;5111168;27;20032;-67
2022/08/25 07:25:46;;;;;;;9.60;4.28;;;20.90;99.90;;;;;;5113227;27;20032;-67
2022/08/25 07:28:13;;;;;;;13.45;4.65;;;21.10;99.90;;;;;;5131785;27;20114;-66
2022/08/25 07:30:39;;;;;;;9.77;4.07;;;21.30;99.90;;;;;;5130740;27;20082;-66
2022/08/25 07:33:05;;;;;;;8.93;4.13;;;21.50;99.90;;;;;;5115613;27;20122;-67
2022/08/25 07:35:31;;;;;;;8.68;4.03;;;21.70;99.90;;;;;;5116421;27;20380;-66
2022/08/25 07:37:58;;;;;;;8.60;3.72;;;21.90;99.90;;;;;;5097978;27;20464;-66
2022/08/25 07:40:33;;;;;;;10.18;3.67;;;22.00;99.90;;;;;;5115241;27;20563;-66
2022/08/25 07:43:02;;;;;;;11.13;3.80;;;22.20;99.90;;;;;;5128733;27;20104;-69
2022/08/25 07:45:31;;;;;;;7.72;3.90;;;22.40;99.90;;;;;;5121350;27;20054;-67
2022/08/25 07:47:58;;;;;;;9.65;3.95;;;22.60;99.90;;;;;;5112379;27;20066;-68
2022/08/25 07:50:25;;;;;;;9.43;3.88;;;22.70;99.90;;;;;;5119800;27;20519;-67
2022/08/25 07:52:51;;;;;;;10.52;3.80;;;22.90;99.90;;;;;;5125272;27;20043;-67
2022/08/25 07:55:17;;;;;;;10.43;4.28;;;23.10;99.90;;;;;;5115262;27;20050;-67
2022/08/25 07:57:43;;;;;;;8.55;3.42;;;23.20;99.90;;;;;;5094792;27;20039;-67
2022/08/25 08:00:11;;;;;;;7.75;3.97;;;23.40;99.90;;;;;;5117381;27;20047;-67
2022/08/25 08:02:38;;;;;;;8.75;4.40;;;23.50;99.90;;;;;;5117128;27;20047;-68
2022/08/25 08:05:04;;;;;;;9.88;3.53;;;23.60;99.90;;;;;;5113068;27;20534;-67
2022/08/25 08:07:30;;;;;;;10.90;3.45;;;23.70;99.90;;;;;;5119883;27;20126;-67
2022/08/25 08:09:56;;;;;;;9.35;4.22;;;23.80;99.90;;;;;;5116714;27;20613;-67
2022/08/25 08:12:23;;;;;;;9.13;3.88;;;24.00;99.90;;;;;;5098878;27;20047;-67
2022/08/25 08:14:49;;;;;;;12.68;4.05;;;24.10;99.90;;;;;;5133932;27;20043;-67
2022/08/25 08:17:15;;;;;;;10.27;3.65;;;24.20;99.90;;;;;;5102982;27;20039;-67
2022/08/25 08:19:41;;;;;;;7.97;3.47;;;24.40;99.90;;;;;;5093891;27;20039;-67
2022/08/25 08:22:10;;;;;;;10.02;3.58;;;24.50;99.90;;;;;;5121239;27;20050;-67
2022/08/25 08:24:38;;;;;;;7.95;3.35;;;24.60;99.90;;;;;;5118871;27;20116;-67
2022/08/25 08:27:07;;;;;;;11.25;4.18;;;24.70;99.90;;;;;;5127050;27;20039;-68
2022/08/25 08:29:34;;;;;;;11.75;3.72;;;24.90;99.90;;;;;;5107172;27;20042;-67
2022/08/25 08:32:01;;;;;;;7.72;3.47;;;25.00;99.90;;;;;;5105618;27;20692;-67
2022/08/25 08:34:28;;;;;;;8.20;3.50;;;25.10;99.90;;;;;;5107480;27;20092;-67
2022/08/25 08:36:53;;;;;;;10.05;3.63;;;25.30;99.90;;;;;;5096987;27;20044;-68
2022/08/25 08:39:19;;;;;;;12.63;4.10;;;25.50;99.90;;;;;;5134324;27;20464;-67
2022/08/25 08:42:15;;;;;;;11.18;3.60;;;25.50;99.90;;;;;;5124501;27;20042;-68
2022/08/25 08:44:44;;;;;;;8.73;3.00;;;25.70;99.90;;;;;;5122640;27;20100;-68
2022/08/25 08:47:19;;;;;;;7.60;3.33;;;25.80;99.90;;;;;;5119882;27;20463;-68
2022/08/25 08:50:03;;;;;;;8.60;3.40;;;26.00;99.90;;;;;;5144315;27;20127;-68
2022/08/25 08:52:43;;;;;;;10.75;3.15;;;26.10;99.90;;;;;;5088399;27;20051;-68
2022/08/25 08:55:22;;;;;;;8.95;3.38;;;26.20;99.90;;;;;;5090355;27;20046;-68
2022/08/25 08:57:50;;;;;;;7.03;3.33;;;26.30;99.90;;;;;;5126514;27;20051;-68
2022/08/25 09:00:16;;;;;;;10.02;3.50;;;26.40;99.90;;;;;;5078571;27;20047;-67
2022/08/25 09:02:51;;;;;;;7.50;3.22;;;26.50;99.90;;;;;;5103438;27;20043;-66
2022/08/25 09:05:19;;;;;;;6.57;3.00;;;26.60;99.90;;;;;;5124960;27;20403;-66
2022/08/25 09:07:52;;;;;;;7.70;3.63;;;26.70;99.90;;;;;;5099123;27;20124;-67
2022/08/25 09:10:19;;;;;;;8.15;2.83;;;26.90;99.90;;;;;;5088678;27;20099;-67
2022/08/25 09:12:57;;;;;;;7.40;3.05;;;27.00;99.90;;;;;;5133625;27;20042;-68
2022/08/25 09:18:56;;;;;;;7.28;3.47;;;27.10;99.90;;;;;;5139547;27;20059;-68
2022/08/25 09:22:03;;;;;;;13.70;3.80;;;27.20;99.90;;;;;;5098248;27;20539;-69
2022/08/25 09:24:58;;;;;;;8.40;2.67;;;27.30;99.90;;;;;;5103886;27;20449;-69
2022/08/25 09:27:46;;;;;;;9.73;3.08;;;27.40;99.90;;;;;;5082241;27;20068;-69
2022/08/25 09:30:17;;;;;;;8.20;3.05;;;27.50;99.90;;;;;;5124243;27;20053;-69
2022/08/25 09:32:49;;;;;;;7.50;2.95;;;27.50;99.90;;;;;;5103942;27;20066;-68
2022/08/25 09:35:26;;;;;;;6.38;2.90;;;27.60;99.90;;;;;;5109695;27;20042;-69
2022/08/25 09:38:01;;;;;;;9.38;2.95;;;27.70;99.90;;;;;;5103868;27;20039;-69
2022/08/25 09:40:29;;;;;;;9.27;3.25;;;27.80;99.90;;;;;;5074046;27;20059;-68
2022/08/25 09:43:00;;;;;;;9.30;2.83;;;27.80;99.90;;;;;;5094484;27;20040;-69
2022/08/25 09:45:42;;;;;;;6.35;2.40;;;28.00;99.90;;;;;;5082950;28;20063;-69
2022/08/25 09:48:27;;;;;;;8.00;2.72;;;28.00;99.90;;;;;;5085410;28;20051;-69
2022/08/25 09:51:26;;;;;;;8.30;2.38;;;28.10;99.90;;;;;;5069064;28;20392;-69
2022/08/25 09:54:17;;;;;;;9.70;2.75;;;28.20;99.90;;;;;;5083309;28;20803;-69
2022/08/25 09:56:53;;;;;;;6.53;2.80;;;28.30;99.90;;;;;;5083829;28;20043;-69
2022/08/25 09:59:22;;;;;;;7.63;3.10;;;28.30;99.90;;;;;;5113439;27;20036;-68
2022/08/25 10:01:50;;;;;;;9.98;2.88;;;28.40;99.90;;;;;;5083239;28;20043;-69
2022/08/25 10:04:31;;;;;;;7.07;2.70;;;28.50;99.90;;;;;;5083149;28;20040;-70
2022/08/25 10:07:03;;;;;;;9.48;2.80;;;28.50;99.90;;;;;;5084755;28;20051;-69
2022/08/25 10:09:41;;;;;;;5.85;2.50;;;28.60;99.90;;;;;;5083539;28;20089;-69
2022/08/25 10:12:23;;;;;;;8.88;2.85;;;28.60;99.90;;;;;;5087137;28;20036;-69
2022/08/25 10:14:50;;;;;;;7.95;2.88;;;28.70;99.90;;;;;;5087283;28;20119;-70
2022/08/25 10:17:29;;;;;;;7.80;2.38;;;28.70;99.40;;;;;;5086443;28;20047;-69
2022/08/25 10:20:16;;;;;;;5.55;2.45;;;28.80;99.90;;;;;;5088462;28;20120;-70
2022/08/25 10:22:43;;;;;;;6.30;2.45;;;28.80;99.10;;;;;;5069292;28;20390;-69
2022/08/25 10:25:12;;;;;;;6.38;2.50;;;28.90;99.20;;;;;;5086791;28;20071;-68
2022/08/25 10:27:59;;;;;;;6.95;2.50;;;28.90;99.00;;;;;;5087386;28;20048;-69
2022/08/25 10:30:30;;;;;;;5.15;2.40;;;29.00;98.50;;;;;;5087016;28;20077;-70
2022/08/25 10:33:09;;;;;;;9.57;2.38;;;29.00;98.60;;;;;;5086521;28;20504;-69
2022/08/25 10:35:56;;;;;;;4.97;2.25;;;29.10;98.20;;;;;;5087082;28;20055;-69
2022/08/25 10:38:44;;;;;;;5.22;2.25;;;29.10;97.10;;;;;;5087466;28;20580;-69
2022/08/25 10:41:36;;;;;;;6.10;2.33;;;29.20;96.80;;;;;;5086250;28;20418;-69
2022/08/25 10:47:06;;;;;;;6.15;2.38;;;29.20;95.10;;;;;;5101172;27;20509;-69
2022/08/25 10:49:46;;;;;;;8.18;2.33;;;29.30;95.60;;;;;;5130361;27;20039;-69
2022/08/25 10:52:20;;;;;;;6.35;2.60;;;29.30;94.90;;;;;;5128601;27;20494;-69
2022/08/25 10:54:55;;;;;;;7.28;2.20;;;29.30;95.30;;;;;;5110830;27;20073;-69
2022/08/25 10:57:25;;;;;;;6.90;2.63;;;29.40;95.10;;;;;;5141886;27;20038;-69
2022/08/25 10:59:57;;;;;;;6.70;2.50;;;29.40;95.40;;;;;;5114457;27;20117;-70
2022/08/25 11:02:53;;;;;;;7.57;2.47;;;29.50;94.50;;;;;;5118362;27;20388;-69
2022/08/25 11:05:41;;;;;;;6.38;2.25;;;29.60;94.70;;;;;;5110438;27;20083;-70
2022/08/25 11:08:37;;;;;;;7.07;2.30;;;29.60;93.70;;;;;;5092547;27;20051;-69
2022/08/25 11:11:30;;;;;;;8.75;2.53;;;29.70;93.90;;;;;;5125900;27;20051;-70
2022/08/25 11:14:11;;;;;;;6.30;2.30;;;29.70;94.20;;;;;;5134773;27;20043;-70
2022/08/25 11:17:03;;;;;;;6.80;2.25;;;29.80;93.60;;;;;;5126417;27;20057;-70
2022/08/25 11:19:34;;;;;;;5.47;2.50;;;29.90;93.40;;;;;;5110285;27;20046;-71
2022/08/25 11:22:41;;;;;;;4.93;2.20;;;29.90;93.40;;;;;;5109575;27;20031;-71
2022/08/25 11:25:30;;;;;;;6.22;1.92;;;30.00;92.40;;;;;;5127446;27;20039;-70
2022/08/25 11:28:19;;;;;;;6.25;1.90;;;30.00;92.90;;;;;;5148782;27;20075;-70
2022/08/25 11:30:46;;;;;;;4.57;2.03;;;30.10;91.30;;;;;;5102664;27;20043;-70
2022/08/25 11:33:15;;;;;;;5.60;2.30;;;30.20;92.10;;;;;;5127862;27;20050;-70
2022/08/25 11:35:59;;;;;;;4.80;1.90;;;30.30;92.50;;;;;;5109075;27;20564;-70
2022/08/25 11:39:03;;;;;;;5.65;2.10;;;30.30;91.80;;;;;;5109606;27;20439;-70
2022/08/25 11:42:03;;;;;;;6.15;2.22;;;30.30;90.70;;;;;;5100500;27;20047;-70
2022/08/25 11:44:42;;;;;;;6.97;2.13;;;30.40;91.10;;;;;;5127030;27;20444;-70
2022/08/25 11:47:12;;;;;;;5.85;2.10;;;30.40;90.40;;;;;;5096532;27;20419;-74
2022/08/25 11:49:58;;;;;;;4.65;2.08;;;30.50;90.40;;;;;;5107808;27;20047;-71
2022/08/25 11:52:30;;;;;;;5.60;2.20;;;30.40;89.80;;;;;;5119823;27;20518;-70
2022/08/25 11:55:04;;;;;;;6.50;2.00;;;30.40;87.80;;;;;;5127923;27;20047;-70
2022/08/25 11:57:30;;;;;;;5.20;2.08;;;30.40;87.50;;;;;;5118345;27;20054;-70
2022/08/25 12:00:10;;;;;;;8.60;2.10;;;30.40;88.00;;;;;;5113101;27;20106;-69
2022/08/25 12:02:45;;;;;;;5.85;1.85;;;30.40;87.40;;;;;;5113397;27;20050;-70
2022/08/25 12:05:31;;;;;;;6.43;2.58;;;30.40;88.20;;;;;;5112894;27;20039;-70
2022/08/25 12:10:56;;;;;;;;;;;30.50;87.00;;;;;;5129146;27;20045;-70
2022/08/25 12:13:48;;;;;;;7.50;2.25;;;30.50;84.70;;;;;;5144716;27;19924;-70
2022/08/25 12:16:35;;;;;;;5.32;1.80;;;30.50;84.60;;;;;;5113330;27;20067;-70
2022/08/25 12:19:22;;;;;;;6.10;1.90;;;30.50;85.20;;;;;;5117769;27;20043;-71
2022/08/25 12:21:49;;;;;;;4.30;2.10;;;30.60;83.90;;;;;;5152628;27;20038;-70
2022/08/25 12:24:18;;;;;;;4.95;1.95;;;30.70;85.40;;;;;;5136304;27;20415;-69
2022/08/25 12:26:46;;;;;;;6.10;2.38;;;30.80;85.30;;;;;;5133429;27;20038;-69
2022/08/25 12:29:40;;;;;;;5.07;1.88;;;30.80;83.30;;;;;;5133731;27;20126;-69
2022/08/25 12:32:18;;;;;;;6.57;2.30;;;30.80;83.00;;;;;;5091382;27;20047;-70
2022/08/25 12:35:02;;;;;;;8.20;2.38;;;30.80;83.90;;;;;;5127935;27;20081;-71
2022/08/25 12:37:28;;;;;;;5.63;2.10;;;30.80;81.60;;;;;;5128414;27;20396;-70
2022/08/25 12:40:01;;;;;;;6.43;2.15;;;30.80;82.20;;;;;;5111954;27;20112;-70
2022/08/25 12:42:33;;;;;;;4.70;2.00;;;30.80;80.60;;;;;;5112626;27;20606;-70
2022/08/25 12:45:08;;;;;;;6.15;2.10;;;30.80;81.80;;;;;;5096382;27;20047;-69
2022/08/25 12:47:34;;;;;;;6.28;2.10;;;30.90;80.50;;;;;;5132393;27;20035;-70
2022/08/25 12:50:37;;;;;;;5.90;2.42;;;30.90;82.20;;;;;;5131705;27;20054;-70
2022/08/25 12:53:10;;;;;;;7.32;2.42;;;31.00;81.10;;;;;;5131783;27;20384;-70
2022/08/25 12:55:39;;;;;;;6.07;2.17;;;31.00;80.80;;;;;;5111222;27;20087;-70
2022/08/25 12:58:05;;;;;;;4.63;2.00;;;31.00;81.40;;;;;;5110325;27;20031;-70
2022/08/25 13:00:57;;;;;;;6.40;2.33;;;31.00;81.60;;;;;;5110567;27;20047;-70
2022/08/25 13:03:57;;;;;;;4.38;2.33;;;31.10;79.30;;;;;;5103720;27;20458;-70
2022/08/25 13:06:36;;;;;;;5.47;2.22;;;31.00;79.00;;;;;;5122803;27;20376;-71
2022/08/25 13:09:02;;;;;;;4.63;2.05;;;31.00;78.80;;;;;;5134437;27;20381;-69
2022/08/25 13:11:44;;;;;;;5.50;2.13;;;31.00;78.90;;;;;;5101955;27;20064;-69
2022/08/25 13:14:18;;;;;;;5.88;2.30;;;31.00;76.80;;;;;;5122097;27;20149;-70